Time;durP1;ratioP1;P1;durP2;ratioP2;P2;SDS_P1;SDS_P2;PMS_P1;PMS_P2;Temp;Humidity;BMP_temperature;BMP_pressure;BME280_temperature;BME280_humidity;BME280_pressure;Samples;Min_cycle;Max_cycle;Signal;HPM_P1;HPM_P2
2023/05/14 00:00:07;;;;;;;4.57;2.50;;;16.70;99.90;;;;;;5041428;28;20658;-76
2023/05/14 00:02:38;;;;;;;3.42;2.33;;;16.80;99.90;;;;;;5052917;28;20197;-77
2023/05/14 00:05:09;;;;;;;3.70;2.50;;;16.90;99.90;;;;;;5040356;28;20208;-76
2023/05/14 00:07:41;;;;;;;3.80;2.10;;;17.00;99.90;;;;;;5045961;28;20193;-76
2023/05/14 00:10:12;;;;;;;2.55;1.95;;;17.10;99.90;;;;;;5035706;28;20222;-77
2023/05/14 00:12:45;;;;;;;2.63;1.95;;;17.30;99.90;;;;;;5033773;28;20202;-76
2023/05/14 00:15:16;;;;;;;4.82;1.67;;;17.40;99.90;;;;;;5052094;28;20181;-77
2023/05/14 00:17:47;;;;;;;2.25;1.50;;;17.40;99.90;;;;;;5055016;28;20232;-75
2023/05/14 00:20:19;;;;;;;2.35;1.25;;;17.40;99.90;;;;;;5054872;28;20186;-75
2023/05/14 00:22:50;;;;;;;1.20;1.10;;;17.50;99.90;;;;;;5054337;28;20189;-76
2023/05/14 00:25:21;;;;;;;1.48;0.90;;;17.60;99.90;;;;;;5053992;28;20190;-77
2023/05/14 00:27:54;;;;;;;1.40;1.00;;;17.70;99.90;;;;;;5047761;28;20237;-76
2023/05/14 00:30:25;;;;;;;2.53;1.20;;;17.80;99.90;;;;;;5054956;28;20684;-76
2023/05/14 00:32:56;;;;;;;3.58;1.20;;;17.90;99.90;;;;;;5054833;28;20225;-76
2023/05/14 00:35:27;;;;;;;2.05;1.40;;;17.90;99.90;;;;;;5052804;28;20201;-76
2023/05/14 00:37:58;;;;;;;1.75;1.30;;;18.00;99.90;;;;;;5054653;28;20555;-76
2023/05/14 00:40:30;;;;;;;2.38;1.13;;;18.10;99.90;;;;;;5054455;28;20189;-76
2023/05/14 00:43:03;;;;;;;4.50;2.00;;;18.20;99.90;;;;;;5055001;28;20264;-76
2023/05/14 00:45:34;;;;;;;3.08;1.50;;;18.40;99.90;;;;;;5054423;28;20194;-76
2023/05/14 00:48:06;;;;;;;3.55;1.35;;;18.50;99.90;;;;;;5054404;28;20200;-76
2023/05/14 00:50:37;;;;;;;3.75;1.38;;;18.50;99.90;;;;;;5050636;28;20776;-76
2023/05/14 00:53:09;;;;;;;2.83;1.45;;;18.60;99.90;;;;;;5051266;28;20207;-76
2023/05/14 00:55:42;;;;;;;2.85;1.33;;;18.70;99.90;;;;;;5034422;28;20237;-75
2023/05/14 00:58:15;;;;;;;6.07;2.20;;;18.70;99.90;;;;;;5034555;28;20199;-76
2023/05/14 01:00:46;;;;;;;3.63;1.80;;;18.80;99.90;;;;;;5033857;28;20233;-75
2023/05/14 01:03:18;;;;;;;1.35;1.20;;;18.80;99.90;;;;;;5033520;28;20193;-76
2023/05/14 01:06:00;;;;;;;2.10;1.20;;;18.90;99.90;;;;;;5038200;28;20183;-76
2023/05/14 01:08:44;;;;;;;3.63;1.20;;;19.00;99.90;;;;;;5052505;28;20196;-75
2023/05/14 01:11:21;;;;;;;1.45;1.10;;;19.00;99.90;;;;;;5053879;28;20196;-75
2023/05/14 01:14:05;;;;;;;2.00;1.23;;;19.20;99.90;;;;;;5052485;28;20239;-76
2023/05/14 01:16:38;;;;;;;1.83;1.20;;;19.20;99.90;;;;;;5039850;28;20217;-76
2023/05/14 01:19:19;;;;;;;2.28;1.10;;;19.10;99.90;;;;;;5046497;28;20543;-76
2023/05/14 01:21:52;;;;;;;1.42;0.90;;;19.10;99.90;;;;;;5051737;28;20202;-76
2023/05/14 01:24:23;;;;;;;2.78;1.17;;;19.00;99.90;;;;;;5051880;28;20212;-76
2023/05/14 01:26:55;;;;;;;0.90;0.60;;;18.90;99.90;;;;;;5045569;28;20206;-76
2023/05/14 01:29:27;;;;;;;2.13;0.80;;;18.80;99.90;;;;;;5044332;28;20213;-76
2023/05/14 01:32:02;;;;;;;3.05;0.90;;;19.00;99.90;;;;;;5053960;28;20192;-75
2023/05/14 01:34:34;;;;;;;3.28;0.80;;;19.20;99.90;;;;;;5049173;28;20235;-75
2023/05/14 01:37:08;;;;;;;1.35;0.70;;;19.40;99.90;;;;;;5034219;28;20229;-76
2023/05/14 01:39:40;;;;;;;2.05;0.90;;;19.50;99.90;;;;;;5052769;28;20209;-76
2023/05/14 01:42:12;;;;;;;1.25;0.63;;;19.60;99.90;;;;;;5052656;28;20208;-76
2023/05/14 01:44:44;;;;;;;2.75;0.85;;;19.50;99.90;;;;;;5049779;28;20198;-76
2023/05/14 01:47:15;;;;;;;1.95;0.80;;;19.40;99.90;;;;;;5037772;28;20197;-76
2023/05/14 01:49:46;;;;;;;3.20;1.10;;;19.20;99.90;;;;;;5041278;28;20206;-76
2023/05/14 01:52:20;;;;;;;2.70;0.90;;;19.00;99.90;;;;;;5033225;28;20194;-77
2023/05/14 01:54:51;;;;;;;2.67;0.70;;;18.90;99.90;;;;;;5047317;28;20194;-75
2023/05/14 01:57:24;;;;;;;2.10;0.90;;;18.80;99.90;;;;;;5051898;28;20197;-77
2023/05/14 01:59:55;;;;;;;1.52;1.00;;;18.70;99.90;;;;;;5044199;28;20200;-76
2023/05/14 02:02:27;;;;;;;2.13;0.70;;;18.70;99.90;;;;;;5033334;28;20236;-77
2023/05/14 02:04:58;;;;;;;1.58;0.60;;;18.70;99.90;;;;;;5038664;28;20193;-77
2023/05/14 02:07:31;;;;;;;1.52;0.60;;;18.70;99.90;;;;;;5033915;28;20194;-76
2023/05/14 02:10:02;;;;;;;2.20;0.60;;;18.60;99.90;;;;;;5036567;28;20680;-76
2023/05/14 02:12:33;;;;;;;3.08;1.13;;;18.80;99.90;;;;;;5052284;28;20208;-76
2023/05/14 02:15:05;;;;;;;3.45;0.98;;;19.10;99.90;;;;;;5051746;28;20660;-76
2023/05/14 02:17:36;;;;;;;2.35;0.77;;;19.30;99.90;;;;;;5051678;28;20217;-76
2023/05/14 02:20:09;;;;;;;2.58;1.10;;;19.60;99.90;;;;;;5047320;28;20198;-76
2023/05/14 02:22:44;;;;;;;2.85;1.00;;;19.70;99.90;;;;;;5053193;28;20243;-75
2023/05/14 02:25:15;;;;;;;1.20;0.70;;;19.70;99.90;;;;;;5050717;28;20657;-75
2023/05/14 02:27:46;;;;;;;3.42;1.10;;;19.70;99.90;;;;;;5047175;28;20649;-76
2023/05/14 02:30:18;;;;;;;2.53;0.77;;;19.80;99.90;;;;;;5037198;28;20249;-76
2023/05/14 02:32:49;;;;;;;2.60;0.90;;;19.70;99.90;;;;;;5047432;28;20201;-76
2023/05/14 02:35:20;;;;;;;2.42;0.80;;;19.60;99.90;;;;;;5040378;28;20198;-76
2023/05/14 02:37:53;;;;;;;2.63;0.90;;;19.40;99.90;;;;;;5051317;28;20190;-76
2023/05/14 02:40:24;;;;;;;3.08;0.98;;;19.20;99.90;;;;;;5049815;28;20201;-75
2023/05/14 02:42:55;;;;;;;2.95;1.00;;;19.10;99.90;;;;;;5043332;28;20190;-76
2023/05/14 02:45:26;;;;;;;3.00;1.10;;;19.00;99.90;;;;;;5033069;28;20193;-76
2023/05/14 02:47:57;;;;;;;3.15;0.90;;;18.90;99.90;;;;;;5032711;28;20221;-76
2023/05/14 02:50:28;;;;;;;1.90;1.00;;;18.90;99.90;;;;;;5032468;28;20693;-75
2023/05/14 02:53:01;;;;;;;2.35;1.50;;;19.00;99.90;;;;;;5032723;28;20191;-75
2023/05/14 02:55:33;;;;;;;3.88;1.42;;;19.00;99.90;;;;;;5033048;28;20186;-76
2023/05/14 02:58:04;;;;;;;4.68;1.25;;;19.10;99.90;;;;;;5032797;28;20214;-75
2023/05/14 03:00:35;;;;;;;4.00;1.02;;;19.00;99.90;;;;;;5032333;28;20638;-76
2023/05/14 03:03:06;;;;;;;2.00;1.00;;;19.00;99.90;;;;;;5037514;28;20191;-76
2023/05/14 03:05:37;;;;;;;5.00;1.00;;;19.00;99.90;;;;;;5046030;28;20194;-76
2023/05/14 03:08:10;;;;;;;1.63;1.00;;;18.90;99.90;;;;;;5032712;28;20652;-75
2023/05/14 03:10:41;;;;;;;1.63;1.10;;;18.90;99.90;;;;;;5039567;28;20582;-75
2023/05/14 03:13:14;;;;;;;2.80;1.20;;;18.90;99.90;;;;;;5052751;28;20194;-76
2023/05/14 03:15:45;;;;;;;1.50;0.95;;;18.80;99.90;;;;;;5052562;28;20225;-75
2023/05/14 03:18:16;;;;;;;2.13;0.90;;;18.90;99.90;;;;;;5052417;28;20190;-76
2023/05/14 03:20:47;;;;;;;2.63;0.90;;;18.90;99.90;;;;;;5038429;28;20224;-75
2023/05/14 03:23:21;;;;;;;2.80;1.00;;;18.90;99.90;;;;;;5041487;28;20195;-75
2023/05/14 03:25:52;;;;;;;2.97;0.85;;;18.90;99.90;;;;;;5035158;28;20530;-75
2023/05/14 03:28:23;;;;;;;1.88;0.98;;;18.90;99.90;;;;;;5035488;28;20190;-77
2023/05/14 03:30:54;;;;;;;1.42;0.70;;;18.80;99.90;;;;;;5036221;28;20226;-75
2023/05/14 03:33:26;;;;;;;2.97;1.00;;;18.80;99.90;;;;;;5035765;28;20194;-75
2023/05/14 03:35:57;;;;;;;1.70;0.93;;;18.70;99.90;;;;;;5042552;28;20194;-75
2023/05/14 03:38:30;;;;;;;2.25;1.00;;;18.60;99.90;;;;;;5037635;28;20642;-76
2023/05/14 03:41:01;;;;;;;1.73;1.05;;;18.50;99.90;;;;;;5039145;28;20200;-76
2023/05/14 03:43:33;;;;;;;3.13;1.15;;;18.50;99.90;;;;;;5055170;28;20200;-76
2023/05/14 03:46:04;;;;;;;5.18;1.42;;;18.40;99.90;;;;;;5055461;28;20255;-76
2023/05/14 03:48:35;;;;;;;3.88;1.45;;;18.40;99.90;;;;;;5055849;28;20186;-75
2023/05/14 03:51:06;;;;;;;3.90;1.80;;;18.40;99.90;;;;;;5055358;28;20217;-76
2023/05/14 03:53:39;;;;;;;2.17;1.50;;;18.40;99.90;;;;;;5048055;28;20186;-76
2023/05/14 03:56:10;;;;;;;3.58;1.42;;;18.40;99.90;;;;;;5035375;28;20578;-76
2023/05/14 03:58:42;;;;;;;4.10;1.50;;;18.40;99.90;;;;;;5035410;28;20198;-76
2023/05/14 04:01:13;;;;;;;4.55;1.40;;;18.40;99.90;;;;;;5035226;28;20230;-76
2023/05/14 04:03:44;;;;;;;2.30;1.10;;;18.40;99.90;;;;;;5048304;28;20206;-76
2023/05/14 04:06:15;;;;;;;2.75;0.98;;;18.40;99.90;;;;;;5053491;28;20190;-76
2023/05/14 04:08:48;;;;;;;4.97;1.00;;;18.40;99.90;;;;;;5055522;28;20190;-76
2023/05/14 04:11:20;;;;;;;2.97;1.30;;;18.40;99.90;;;;;;5055261;28;20233;-76
2023/05/14 04:13:51;;;;;;;1.77;1.08;;;18.40;99.90;;;;;;5055329;28;20190;-75
2023/05/14 04:16:22;;;;;;;2.67;1.15;;;18.40;99.90;;;;;;5046363;28;20700;-76
2023/05/14 04:18:53;;;;;;;2.85;1.10;;;18.40;99.90;;;;;;5054886;28;20198;-75
2023/05/14 04:21:24;;;;;;;2.03;0.93;;;18.40;99.90;;;;;;5054946;28;20577;-76
2023/05/14 04:23:57;;;;;;;2.00;1.00;;;18.30;99.90;;;;;;5055063;28;20194;-76
2023/05/14 04:26:28;;;;;;;2.05;0.82;;;18.40;99.90;;;;;;5054881;28;20197;-77
2023/05/14 04:29:01;;;;;;;2.17;1.00;;;18.30;99.90;;;;;;5054975;28;20190;-76
2023/05/14 04:31:32;;;;;;;3.38;1.10;;;18.40;99.90;;;;;;5035481;28;20226;-73
2023/05/14 04:34:04;;;;;;;8.13;1.85;;;18.40;99.90;;;;;;5034666;28;20200;-73
2023/05/14 04:36:35;;;;;;;2.70;1.08;;;18.40;99.90;;;;;;5034396;28;20190;-73
2023/05/14 04:39:11;;;;;;;2.97;1.10;;;18.30;99.90;;;;;;5034983;28;20186;-73
2023/05/14 04:41:42;;;;;;;4.80;1.17;;;18.40;99.90;;;;;;5044764;28;20661;-73
2023/05/14 04:44:14;;;;;;;1.92;0.88;;;18.40;99.90;;;;;;5054508;28;20189;-72
2023/05/14 04:46:45;;;;;;;3.85;0.90;;;18.40;99.90;;;;;;5054259;28;20193;-72
2023/05/14 04:49:16;;;;;;;1.88;0.80;;;18.40;99.90;;;;;;5035202;28;20190;-72
2023/05/14 04:51:48;;;;;;;3.72;1.00;;;18.40;99.90;;;;;;5034528;28;20219;-72
2023/05/14 04:54:21;;;;;;;1.08;0.70;;;18.50;99.90;;;;;;5034604;28;20201;-72
2023/05/14 04:56:54;;;;;;;1.85;0.65;;;18.60;99.90;;;;;;5043038;28;20206;-72
2023/05/14 04:59:25;;;;;;;1.33;0.60;;;18.60;99.90;;;;;;5037466;28;20224;-73
2023/05/14 05:01:56;;;;;;;1.85;0.70;;;18.70;99.90;;;;;;5022188;28;20253;-72
2023/05/14 05:04:27;;;;;;;1.23;0.50;;;18.80;99.90;;;;;;5027422;28;20194;-73
2023/05/14 05:06:58;;;;;;;1.48;0.60;;;18.80;99.90;;;;;;5025100;28;20203;-73
2023/05/14 05:09:32;;;;;;;1.90;0.60;;;18.80;99.90;;;;;;5022526;28;20289;-73
2023/05/14 05:12:03;;;;;;;1.50;0.70;;;18.80;99.90;;;;;;5015636;28;20214;-73
2023/05/14 05:14:34;;;;;;;1.10;0.60;;;18.80;99.90;;;;;;5030152;28;20668;-73
2023/05/14 05:17:05;;;;;;;1.55;0.60;;;18.70;99.90;;;;;;5019204;28;20222;-73
2023/05/14 05:19:39;;;;;;;2.13;0.60;;;18.60;99.90;;;;;;5021120;28;20216;-73
2023/05/14 05:22:10;;;;;;;1.38;0.57;;;18.50;99.90;;;;;;5024029;28;20206;-73
2023/05/14 05:24:43;;;;;;;4.05;0.70;;;18.50;99.90;;;;;;5025384;28;20531;-73
2023/05/14 05:27:14;;;;;;;2.65;0.70;;;18.40;99.90;;;;;;5031367;28;20190;-72
2023/05/14 05:29:45;;;;;;;2.53;0.82;;;18.40;99.90;;;;;;5009556;28;20199;-72
2023/05/14 05:32:17;;;;;;;2.17;0.70;;;18.30;99.90;;;;;;5025890;28;20229;-73
2023/05/14 05:34:48;;;;;;;1.58;0.57;;;18.30;99.90;;;;;;5033011;28;20256;-73
2023/05/14 05:37:19;;;;;;;0.68;0.50;;;18.20;99.90;;;;;;5033768;28;20191;-72
2023/05/14 05:39:52;;;;;;;2.88;0.65;;;18.20;99.90;;;;;;5026494;28;20199;-72
2023/05/14 05:42:23;;;;;;;1.35;0.55;;;18.20;99.90;;;;;;5015160;28;20207;-73
2023/05/14 05:44:55;;;;;;;1.90;0.60;;;18.20;99.90;;;;;;5027150;28;20213;-73
2023/05/14 05:47:26;;;;;;;1.58;0.60;;;18.20;99.90;;;;;;5025089;28;20203;-73
2023/05/14 05:49:57;;;;;;;2.30;0.55;;;18.20;99.90;;;;;;5029696;28;20202;-73
2023/05/14 05:52:28;;;;;;;4.43;0.60;;;18.20;99.90;;;;;;5022556;28;20220;-73
2023/05/14 05:55:01;;;;;;;2.22;0.50;;;18.20;99.90;;;;;;5018103;28;20202;-72
2023/05/14 05:57:33;;;;;;;1.20;0.57;;;18.10;99.90;;;;;;5021744;28;20194;-73
2023/05/14 06:00:11;;;;;;;1.65;0.50;;;18.10;99.90;;;;;;5018947;28;20202;-73
2023/05/14 06:02:42;;;;;;;1.90;0.50;;;18.00;99.90;;;;;;5048158;28;20244;-73
2023/05/14 06:05:14;;;;;;;1.85;0.57;;;18.00;99.90;;;;;;5049168;28;20194;-73
2023/05/14 06:07:46;;;;;;;1.67;0.60;;;18.00;99.90;;;;;;5045193;28;20225;-73
2023/05/14 06:10:19;;;;;;;3.78;0.70;;;17.90;99.90;;;;;;5050202;28;20223;-73
2023/05/14 06:12:50;;;;;;;1.20;0.50;;;17.90;99.90;;;;;;5052270;28;20672;-73
2023/05/14 06:15:21;;;;;;;0.95;0.60;;;17.90;99.90;;;;;;5047348;28;20201;-73
2023/05/14 06:17:52;;;;;;;0.88;0.60;;;17.80;99.90;;;;;;5051164;28;20534;-73
2023/05/14 06:20:24;;;;;;;1.05;0.63;;;17.80;99.90;;;;;;5042801;28;20557;-73
2023/05/14 06:22:55;;;;;;;2.95;0.90;;;17.70;99.90;;;;;;5044617;28;20197;-73
2023/05/14 06:25:28;;;;;;;2.67;1.20;;;17.70;99.90;;;;;;5043652;28;20676;-73
2023/05/14 06:27:59;;;;;;;3.38;0.75;;;17.70;99.90;;;;;;5042560;28;20198;-73
2023/05/14 06:30:30;;;;;;;1.00;0.80;;;17.70;99.90;;;;;;5041128;28;20661;-73
2023/05/14 06:33:04;;;;;;;1.08;0.80;;;17.60;99.90;;;;;;5037099;28;20200;-73
2023/05/14 06:35:35;;;;;;;1.58;0.60;;;17.60;99.90;;;;;;5046973;28;20537;-73
2023/05/14 06:38:06;;;;;;;2.40;0.60;;;17.60;99.90;;;;;;5051606;28;20229;-73
2023/05/14 06:40:39;;;;;;;2.35;1.10;;;17.60;99.90;;;;;;5051041;28;20194;-73
2023/05/14 06:43:11;;;;;;;2.20;0.90;;;17.50;99.90;;;;;;5036691;28;20202;-73
2023/05/14 06:45:42;;;;;;;2.80;1.00;;;17.50;99.90;;;;;;5044402;28;20278;-73
2023/05/14 06:48:13;;;;;;;2.58;0.88;;;17.40;99.90;;;;;;5036733;28;20273;-73
2023/05/14 06:50:44;;;;;;;2.30;0.85;;;17.50;99.90;;;;;;5035885;28;20209;-73
2023/05/14 06:53:15;;;;;;;2.45;0.80;;;17.40;99.90;;;;;;5050188;28;20206;-73
2023/05/14 06:55:50;;;;;;;1.67;0.60;;;17.30;99.90;;;;;;5048586;28;20204;-73
2023/05/14 06:58:21;;;;;;;3.15;0.68;;;17.30;99.90;;;;;;5050824;28;20667;-73
2023/05/14 07:00:52;;;;;;;1.95;0.65;;;17.30;99.90;;;;;;5043147;28;20245;-73
2023/05/14 07:03:23;;;;;;;1.73;0.80;;;17.20;99.90;;;;;;5047358;28;20224;-73
2023/05/14 07:05:54;;;;;;;2.22;0.70;;;17.20;99.90;;;;;;5047723;28;20285;-73
2023/05/14 07:08:25;;;;;;;2.58;0.65;;;17.20;99.90;;;;;;5043098;28;20198;-73
2023/05/14 07:10:58;;;;;;;1.88;0.80;;;17.20;99.90;;;;;;5045407;28;20221;-73
2023/05/14 07:13:30;;;;;;;2.17;0.85;;;17.10;99.90;;;;;;5046557;28;20272;-74
2023/05/14 07:16:01;;;;;;;1.55;1.00;;;17.10;99.90;;;;;;5049236;28;20226;-73
2023/05/14 07:18:32;;;;;;;3.30;1.40;;;17.00;99.90;;;;;;5046569;28;20273;-73
2023/05/14 07:21:03;;;;;;;2.95;1.30;;;17.00;99.90;;;;;;5044720;28;20216;-73
2023/05/14 07:23:35;;;;;;;2.60;0.98;;;17.00;99.90;;;;;;5040261;28;20195;-73
2023/05/14 07:26:09;;;;;;;2.42;1.10;;;16.90;99.90;;;;;;5035762;28;20198;-74
2023/05/14 07:28:40;;;;;;;1.98;0.85;;;16.90;99.90;;;;;;5045325;28;20677;-73
2023/05/14 07:31:11;;;;;;;2.30;1.10;;;16.80;99.90;;;;;;5043732;28;20226;-73
2023/05/14 07:33:42;;;;;;;4.00;1.20;;;16.80;99.90;;;;;;5046810;28;20220;-73
2023/05/14 07:36:13;;;;;;;4.85;1.25;;;16.80;99.90;;;;;;5053891;28;20204;-73
2023/05/14 07:38:44;;;;;;;2.80;1.10;;;16.70;99.90;;;;;;5042833;28;20194;-73
2023/05/14 07:41:18;;;;;;;1.63;1.30;;;16.70;99.90;;;;;;5045496;28;20197;-73
2023/05/14 07:43:49;;;;;;;6.32;4.13;;;16.70;99.90;;;;;;5049982;28;20200;-73
2023/05/14 07:46:20;;;;;;;14.05;10.63;;;16.60;99.90;;;;;;5044711;28;20687;-73
2023/05/14 07:48:51;;;;;;;7.60;5.30;;;16.60;99.90;;;;;;5048180;28;20201;-73
2023/05/14 07:51:22;;;;;;;5.47;3.08;;;16.50;99.90;;;;;;5047129;28;20221;-73
2023/05/14 07:53:54;;;;;;;5.85;2.78;;;16.50;99.90;;;;;;5049496;28;20212;-73
2023/05/14 07:56:27;;;;;;;3.78;2.30;;;16.50;99.90;;;;;;5037520;28;20608;-73
2023/05/14 07:58:58;;;;;;;3.80;2.30;;;16.40;99.90;;;;;;5035081;28;20654;-73
2023/05/14 08:01:30;;;;;;;4.78;2.60;;;16.40;99.90;;;;;;5048605;28;20237;-73
2023/05/14 08:04:01;;;;;;;4.45;2.90;;;16.30;99.90;;;;;;5054860;28;20198;-73
2023/05/14 08:06:32;;;;;;;4.15;2.58;;;16.30;99.90;;;;;;5046618;28;20227;-73
2023/05/14 08:09:04;;;;;;;3.67;2.50;;;16.30;99.90;;;;;;5047365;28;20193;-72
2023/05/14 08:11:38;;;;;;;7.43;3.25;;;16.20;99.90;;;;;;5039650;28;20218;-73
2023/05/14 08:14:09;;;;;;;10.25;6.05;;;16.30;99.90;;;;;;5039872;28;20224;-73
2023/05/14 08:16:40;;;;;;;7.72;4.97;;;16.30;99.90;;;;;;5047007;28;20225;-72
2023/05/14 08:19:11;;;;;;;8.35;5.65;;;16.20;99.90;;;;;;5051758;28;20198;-73
2023/05/14 08:21:42;;;;;;;9.57;5.47;;;16.20;99.90;;;;;;5045786;28;20220;-73
2023/05/14 08:24:13;;;;;;;9.40;5.03;;;16.20;99.90;;;;;;5035157;28;20208;-73
2023/05/14 08:26:46;;;;;;;7.32;4.85;;;16.10;99.90;;;;;;5036197;28;20658;-73
2023/05/14 08:29:18;;;;;;;6.85;4.72;;;16.10;99.90;;;;;;5048554;28;20220;-73
2023/05/14 08:31:50;;;;;;;7.22;4.20;;;16.00;99.90;;;;;;5044855;28;20692;-76
2023/05/14 08:34:21;;;;;;;6.60;4.18;;;16.00;99.90;;;;;;5038231;28;20201;-76
2023/05/14 08:36:52;;;;;;;6.93;3.42;;;16.00;99.90;;;;;;5048879;28;20293;-76
2023/05/14 08:39:23;;;;;;;8.13;5.28;;;16.00;99.90;;;;;;5051267;28;20198;-76
2023/05/14 08:41:58;;;;;;;9.05;3.70;;;16.00;99.90;;;;;;5043935;28;20217;-75
2023/05/14 08:44:35;;;;;;;5.55;3.10;;;16.00;99.90;;;;;;5038017;28;20668;-75
2023/05/14 08:47:07;;;;;;;3.90;2.20;;;16.10;99.90;;;;;;5045976;28;20201;-76
2023/05/14 08:49:43;;;;;;;2.92;1.88;;;16.00;99.90;;;;;;5039890;28;20197;-75
2023/05/14 08:52:14;;;;;;;2.45;1.40;;;16.00;99.90;;;;;;5043481;28;20249;-76
2023/05/14 08:54:47;;;;;;;2.17;1.25;;;16.00;99.90;;;;;;5041669;28;20194;-77
2023/05/14 08:57:23;;;;;;;2.70;1.65;;;16.00;99.90;;;;;;5047411;28;20198;-76
2023/05/14 08:59:54;;;;;;;3.78;2.00;;;15.90;99.90;;;;;;5043609;28;20240;-76
2023/05/14 09:02:29;;;;;;;4.57;1.92;;;15.90;99.90;;;;;;5039832;28;20276;-78
2023/05/14 09:05:01;;;;;;;4.22;1.98;;;15.90;99.90;;;;;;5048134;28;20547;-78
2023/05/14 09:07:32;;;;;;;4.05;1.80;;;15.90;99.90;;;;;;5039235;28;20193;-78
2023/05/14 09:10:04;;;;;;;3.13;1.90;;;15.90;99.90;;;;;;5053259;28;20198;-78
2023/05/14 09:12:38;;;;;;;4.50;2.10;;;16.00;99.90;;;;;;5045794;28;20271;-79
2023/05/14 09:15:12;;;;;;;3.47;1.65;;;16.00;99.90;;;;;;5037422;28;20206;-79
2023/05/14 09:17:45;;;;;;;2.53;1.50;;;15.90;99.90;;;;;;5046341;28;20199;-78
2023/05/14 09:20:16;;;;;;;2.15;1.30;;;15.90;99.90;;;;;;5045748;28;20198;-79
2023/05/14 09:22:47;;;;;;;1.90;1.20;;;15.90;99.90;;;;;;5038086;28;20201;-77
2023/05/14 09:25:19;;;;;;;2.88;1.25;;;15.90;99.90;;;;;;5040599;28;20650;-79
2023/05/14 09:27:54;;;;;;;2.65;1.40;;;16.00;99.90;;;;;;5040998;28;20204;-79
2023/05/14 09:30:25;;;;;;;3.63;1.50;;;15.90;99.90;;;;;;5037059;28;20190;-78
2023/05/14 09:33:00;;;;;;;2.70;1.25;;;15.90;99.90;;;;;;5046543;28;20695;-79
2023/05/14 09:35:31;;;;;;;2.80;1.20;;;15.90;99.90;;;;;;5048013;28;20201;-79
2023/05/14 09:38:02;;;;;;;3.47;1.50;;;15.90;99.90;;;;;;5049300;28;20193;-79
2023/05/14 09:40:33;;;;;;;3.15;1.50;;;15.90;99.90;;;;;;5043298;28;20193;-79
2023/05/14 09:43:06;;;;;;;3.05;1.58;;;15.90;99.90;;;;;;5048704;28;20280;-79
2023/05/14 09:45:38;;;;;;;4.32;1.60;;;15.90;99.90;;;;;;5040646;28;20197;-79
2023/05/14 09:48:11;;;;;;;3.85;1.63;;;15.90;99.90;;;;;;5039661;28;20208;-79
2023/05/14 09:50:45;;;;;;;3.85;1.70;;;15.90;99.90;;;;;;5033906;28;20198;-78
2023/05/14 09:53:17;;;;;;;3.03;1.80;;;15.90;99.90;;;;;;5038574;28;20225;-77
2023/05/14 09:55:48;;;;;;;4.15;2.10;;;15.90;99.90;;;;;;5045677;28;20197;-76
2023/05/14 09:58:21;;;;;;;5.47;2.35;;;15.90;99.90;;;;;;5041890;28;20189;-78
2023/05/14 10:00:54;;;;;;;3.47;2.00;;;15.90;99.90;;;;;;5043291;28;20240;-77
2023/05/14 10:03:27;;;;;;;5.50;1.88;;;15.90;99.90;;;;;;5040368;28;20649;-76
2023/05/14 10:06:02;;;;;;;5.10;2.30;;;16.00;99.90;;;;;;5047791;28;20247;-76
2023/05/14 10:08:35;;;;;;;6.03;2.58;;;16.00;99.90;;;;;;5045206;28;20204;-77
2023/05/14 10:11:11;;;;;;;5.07;2.60;;;16.00;99.90;;;;;;5035411;28;20267;-76
2023/05/14 10:13:51;;;;;;;5.20;2.65;;;16.00;99.90;;;;;;5050886;28;20271;-78
2023/05/14 10:16:29;;;;;;;5.03;2.63;;;16.00;99.90;;;;;;5033956;28;20228;-76
2023/05/14 10:19:07;;;;;;;5.03;2.70;;;16.00;99.90;;;;;;5043868;28;20220;-76
2023/05/14 10:21:39;;;;;;;6.78;3.40;;;16.00;99.90;;;;;;5045296;28;20696;-76
2023/05/14 10:24:11;;;;;;;5.78;3.38;;;16.00;99.90;;;;;;5040807;28;20564;-77
2023/05/14 10:26:45;;;;;;;7.03;3.63;;;16.00;99.90;;;;;;5044212;28;20263;-77
2023/05/14 10:29:18;;;;;;;6.22;3.58;;;16.00;99.90;;;;;;5046616;28;20201;-79
2023/05/14 10:31:54;;;;;;;6.43;3.80;;;16.00;99.90;;;;;;5042689;28;20197;-77
2023/05/14 10:34:42;;;;;;;5.10;3.53;;;16.00;99.90;;;;;;5049332;28;20714;-78
2023/05/14 10:37:15;;;;;;;5.47;3.72;;;16.00;99.90;;;;;;5050037;28;20567;-78
2023/05/14 10:39:48;;;;;;;5.82;3.85;;;16.00;99.90;;;;;;5042322;28;20198;-78
2023/05/14 10:42:22;;;;;;;6.85;4.10;;;15.90;99.90;;;;;;5049861;28;20212;-79
2023/05/14 10:44:57;;;;;;;5.80;3.75;;;15.90;99.90;;;;;;5042756;28;20205;-78
2023/05/14 10:47:29;;;;;;;7.85;4.07;;;15.90;99.90;;;;;;5039087;28;20209;-78
2023/05/14 10:50:02;;;;;;;6.07;4.00;;;15.90;99.90;;;;;;5037849;28;20638;-78
2023/05/14 10:52:33;;;;;;;5.40;3.80;;;15.90;99.90;;;;;;5037556;28;20268;-78
2023/05/14 10:55:06;;;;;;;8.32;4.70;;;15.90;99.90;;;;;;5036801;28;20191;-78
2023/05/14 10:57:40;;;;;;;7.93;4.78;;;15.90;99.90;;;;;;5036819;28;20200;-79
2023/05/14 11:00:15;;;;;;;7.00;4.20;;;15.90;99.90;;;;;;5036781;28;20197;-79
2023/05/14 11:02:46;;;;;;;8.00;4.57;;;15.90;99.90;;;;;;5036457;28;20593;-78
2023/05/14 11:05:18;;;;;;;8.80;4.75;;;15.80;99.90;;;;;;5037259;28;20206;-78
2023/05/14 11:07:50;;;;;;;7.82;4.70;;;15.90;99.90;;;;;;5036549;28;20214;-78
2023/05/14 11:10:22;;;;;;;9.95;4.70;;;15.80;99.90;;;;;;5037227;28;20273;-78
2023/05/14 11:12:54;;;;;;;6.65;4.35;;;15.80;99.90;;;;;;5039927;28;20206;-78
2023/05/14 11:15:28;;;;;;;8.48;4.18;;;15.80;99.90;;;;;;5046853;28;20194;-78
2023/05/14 11:17:59;;;;;;;8.00;4.70;;;15.80;99.90;;;;;;5053099;28;20193;-78
2023/05/14 11:20:31;;;;;;;10.25;4.95;;;15.90;99.90;;;;;;5049193;28;20277;-78
2023/05/14 11:23:02;;;;;;;9.20;4.55;;;15.80;99.90;;;;;;5049835;28;20673;-78
2023/05/14 11:25:33;;;;;;;7.15;4.75;;;15.70;99.90;;;;;;5038902;28;20204;-77
2023/05/14 11:28:04;;;;;;;8.15;4.68;;;15.60;99.90;;;;;;5050135;28;20689;-78
2023/05/14 11:30:39;;;;;;;8.60;4.90;;;15.70;99.90;;;;;;5054371;28;20193;-78
2023/05/14 11:33:10;;;;;;;7.13;5.10;;;15.60;99.90;;;;;;5053066;28;20216;-78
2023/05/14 11:35:44;;;;;;;6.50;4.60;;;15.60;99.90;;;;;;5031238;28;20199;-77
2023/05/14 11:38:18;;;;;;;9.48;5.28;;;15.50;99.90;;;;;;5055021;28;20275;-77
2023/05/14 11:40:55;;;;;;;8.18;5.05;;;15.50;99.90;;;;;;5050288;28;21860;-78
2023/05/14 11:43:27;;;;;;;7.68;4.75;;;15.50;99.90;;;;;;5054005;28;20581;-78
2023/05/14 11:46:01;;;;;;;7.43;4.50;;;15.50;99.90;;;;;;5051089;28;20267;-78
2023/05/14 11:48:33;;;;;;;7.07;4.82;;;15.40;99.90;;;;;;5047756;28;20555;-77
2023/05/14 11:51:06;;;;;;;8.57;4.90;;;15.40;99.90;;;;;;5055682;28;20691;-77
2023/05/14 11:53:37;;;;;;;6.97;4.97;;;15.30;99.90;;;;;;5035613;28;20590;-77
2023/05/14 11:56:09;;;;;;;9.00;4.90;;;15.30;99.90;;;;;;5036324;28;20198;-78
2023/05/14 11:58:42;;;;;;;6.65;4.88;;;15.20;99.90;;;;;;5035716;28;20186;-77
2023/05/14 12:01:17;;;;;;;8.05;4.68;;;15.30;99.90;;;;;;5035298;28;20236;-77
2023/05/14 12:03:48;;;;;;;7.43;4.30;;;15.20;99.90;;;;;;5039718;28;20195;-78
2023/05/14 12:06:20;;;;;;;7.07;4.63;;;15.20;99.90;;;;;;5056319;28;20196;-78
2023/05/14 12:08:51;;;;;;;8.50;4.80;;;15.10;99.90;;;;;;5055547;28;20654;-78
2023/05/14 12:11:24;;;;;;;7.65;5.18;;;15.10;99.90;;;;;;5054445;28;20204;-78
2023/05/14 12:13:56;;;;;;;7.00;4.82;;;15.10;99.90;;;;;;5053752;28;20223;-78
2023/05/14 12:16:33;;;;;;;10.23;5.35;;;15.00;99.90;;;;;;5053469;28;20193;-78
2023/05/14 12:19:04;;;;;;;12.90;5.13;;;15.00;99.90;;;;;;5053765;28;20612;-79
2023/05/14 12:21:36;;;;;;;8.25;5.88;;;15.00;99.90;;;;;;5051228;28;20543;-77
2023/05/14 12:24:07;;;;;;;11.07;5.78;;;14.90;99.90;;;;;;5054451;28;20197;-77
2023/05/14 12:26:39;;;;;;;9.02;5.75;;;14.90;99.90;;;;;;5052724;28;20200;-77
2023/05/14 12:29:13;;;;;;;11.20;6.00;;;14.90;99.90;;;;;;5044063;28;20201;-77
2023/05/14 12:31:51;;;;;;;9.43;6.18;;;14.90;99.90;;;;;;5044752;28;20225;-77
2023/05/14 12:34:22;;;;;;;10.65;6.03;;;14.80;99.90;;;;;;5049890;28;20692;-77
2023/05/14 12:36:53;;;;;;;8.18;6.03;;;14.80;99.90;;;;;;5049056;28;20324;-77
2023/05/14 12:39:24;;;;;;;7.72;5.82;;;14.70;99.90;;;;;;5054094;28;20222;-78
2023/05/14 12:41:55;;;;;;;10.25;6.32;;;14.70;99.90;;;;;;5049571;28;20280;-77
2023/05/14 12:44:27;;;;;;;9.68;5.78;;;14.70;99.90;;;;;;5048585;28;20658;-78
2023/05/14 12:47:00;;;;;;;10.38;6.03;;;14.60;99.90;;;;;;5041743;28;20272;-76
2023/05/14 12:49:31;;;;;;;8.85;6.30;;;14.60;99.90;;;;;;5048709;28;20672;-77
2023/05/14 12:52:02;;;;;;;11.55;8.00;;;14.60;99.90;;;;;;5035763;28;20186;-77
2023/05/14 12:54:33;;;;;;;14.73;9.25;;;14.60;99.90;;;;;;5034466;28;20236;-77
2023/05/14 12:57:06;;;;;;;14.60;9.90;;;14.60;99.90;;;;;;5050587;28;20189;-77
2023/05/14 12:59:37;;;;;;;13.27;8.93;;;14.60;99.90;;;;;;5052444;28;20255;-77
2023/05/14 13:02:10;;;;;;;15.15;8.98;;;14.60;99.90;;;;;;5041939;28;20226;-77
2023/05/14 13:04:41;;;;;;;11.90;8.65;;;14.60;99.90;;;;;;5053652;28;20587;-77
2023/05/14 13:07:16;;;;;;;14.18;9.25;;;14.60;99.90;;;;;;5034335;28;20186;-77
2023/05/14 13:09:47;;;;;;;10.93;7.95;;;14.60;99.90;;;;;;5040331;28;20182;-77